Flight Track Log - Related Links

Times and Time Zones

All times are in EDT time to prevent confusion due to time zone crossing. See the SWA3924 flight status page for this flight to view local times or setup timezone preferences in your user account.

Time Position Orientation Groundspeed Altitude Reporting Facility
EDT Latitude Longitude Course Direction KTS km/h feet Rate Location/Type
Tue 22:52:49 37.7167 -122.2333 310° West 152 282 1.000  Level Northern Cal TRACON
Tue 22:54:03 37.7589 -122.2972 310° West 192 356 3.500 2.222 Climbing Oakland Center
Tue 22:55:04 37.8017 -122.3600 311° West 225 417 6.000 3.148 Climbing Oakland Center
Tue 22:56:05 37.8628 -122.4086 328° Northwest 271 502 9.900 3.443 Climbing Oakland Center
Tue 22:57:06 37.9469 -122.3967 North 302 560 13.000 3.689 Climbing Oakland Center
Tue 22:58:07 38.0575 -122.3856 North 334 618 17.400 3.590 Climbing Oakland Center
Tue 22:59:08 38.1561 -122.3747 North 356 660 20.300 2.829 Climbing Oakland Center
Tue 23:00:10 38.2594 -122.3775 359° North 372 689 23.200 2.634 Climbing Oakland Center
Tue 23:01:11 38.3681 -122.3847 357° North 390 723 25.700 2.361 Climbing Oakland Center
Tue 23:02:12 38.4800 -122.3900 358° North 401 742 28.000 2.016 Climbing Oakland Center
Tue 23:03:13 38.5972 -122.3975 357° North 419 776 29.800 1.967 Climbing Oakland Center
Tue 23:04:14 38.7272 -122.4061 357° North 432 800 32.000 2.410 Climbing Oakland Center
Tue 23:05:15 38.8458 -122.4119 358° North 426 789 34.700 1.918 Climbing Oakland Center
Tue 23:06:16 38.9631 -122.4192 357° North 420 777 35.900 1.268 Climbing Oakland Center
Tue 23:07:18 39.0839 -122.4272 357° North 430 797 37.300 1.317 Climbing Oakland Center
Tue 23:08:19 39.2053 -122.4353 357° North 434 803 38.600 1.082 Climbing Oakland Center
Tue 23:09:20 39.3264 -122.4417 358° North 435 806 39.500 689 Climbing Oakland Center
Tue 23:10:21 39.4503 -122.4492 357° North 441 816 40.000 246 Climbing Oakland Center
Tue 23:11:22 39.5761 -122.4561 358° North 443 821 40.000  Level Oakland Center
Tue 23:12:23 39.6986 -122.4642 357° North 441 816 40.000  Level Oakland Center
Tue 23:13:24 39.8211 -122.4717 357° North 438 811 40.000  Level Oakland Center
Tue 23:14:26 39.9433 -122.4800 357° North 437 810 40.000  Level Oakland Center
Tue 23:15:27 40.0658 -122.4886 357° North 436 808 40.000  Level Oakland Center
Tue 23:16:28 40.1919 -122.4947 358° North 440 814 40.000  Level Oakland Center
Tue 23:17:29 40.3158 -122.5011 358° North 439 813 40.000  Level Oakland Center
Tue 23:18:30 40.4386 -122.5094 357° North 437 810 40.000  Level Oakland Center
Tue 23:19:31 40.5858 -122.5197 357° North 440 814 40.000  Level Oakland Center
Tue 23:20:32 40.7086 -122.5253 358° North 440 814 40.000  Level Oakland Center
Tue 23:21:33 40.8314 -122.5328 357° North 440 814 40.000  Level Oakland Center
Tue 23:22:34 40.9536 -122.5397 358° North 440 814 40.000  Level Oakland Center
Tue 23:23:35 41.0753 -122.5469 357° North 438 811 40.000  Level Oakland Center
Tue 23:24:36 41.1981 -122.5572 356° North 441 816 40.000  Level Oakland Center
Tue 23:25:37 41.3183 -122.5628 358° North 434 803 40.000  Level Oakland Center
Tue 23:26:12 41.3908 -122.5678 357° North 435 806 40.000  Level Seattle Center
Tue 23:27:12 41.5019 -122.5758 357° North 433 801 40.000  Level Seattle Center
Tue 23:28:13 41.6233 -122.5833 357° North 434 803 40.000  Level Seattle Center
Tue 23:29:14 41.7456 -122.5911 357° North 437 810 40.000  Level Seattle Center
Tue 23:30:15 41.8675 -122.5989 357° North 438 811 40.000  Level Seattle Center
Tue 23:31:15 41.9889 -122.6064 357° North 433 801 40.000  Level Seattle Center
Tue 23:32:16 42.1103 -122.6156 357° North 431 798 40.000  Level Seattle Center
Tue 23:33:17 42.2308 -122.6222 358° North 430 797 40.000  Level Seattle Center
Tue 23:34:17 42.3517 -122.6294 357° North 431 798 40.000  Level Seattle Center
Tue 23:35:18 42.4717 -122.6392 357° North 431 798 40.000  Level Seattle Center
Tue 23:36:19 42.5931 -122.6464 357° North 435 806 40.000  Level Seattle Center
Tue 23:37:20 42.7122 -122.6558 357° North 431 798 40.000  Level Seattle Center
Tue 23:38:20 42.8433 -122.6636 358° North 433 801 40.000  Level Seattle Center
Tue 23:39:21 42.9631 -122.6714 357° North 432 800 40.000  Level Seattle Center
Tue 23:40:22 43.0828 -122.6797 357° North 432 800 40.000  Level Seattle Center
Tue 23:41:22 43.2022 -122.6878 357° North 432 800 40.000  Level Seattle Center
Tue 23:42:23 43.3219 -122.6953 357° North 434 803 40.000  Level Seattle Center
Tue 23:43:24 43.4411 -122.7028 357° North 433 801 40.000 -198 Level Seattle Center
Tue 23:44:24 43.5592 -122.7119 357° North 429 795 39.600 -1.636 Descending Seattle Center
Tue 23:45:25 43.6994 -122.7197 358° North 421 779 36.700 -2.705 Descending Seattle Center
Tue 23:46:26 43.8158 -122.7281 357° North 423 784 34.100 -2.311 Descending Seattle Center
Tue 23:47:27 43.9344 -122.7361 357° North 429 795 32.000 -2.132 Descending Seattle Center
Tue 23:48:27 44.0489 -122.7450 357° North 418 774 29.800 -2.083 Descending Seattle Center
Tue 23:49:28 44.1594 -122.7517 358° North 406 752 27.800 -2.016 Descending Seattle Center
Tue 23:50:29 44.2653 -122.7403 North 386 715 25.700 -2.066 Descending Seattle Center
Tue 23:51:30 44.3714 -122.7303 North 386 715 23.600 -1.983 Descending Seattle Center
Tue 23:52:30 44.4739 -122.7208 North 379 702 21.700 -1.884 Descending Seattle Center
Tue 23:53:31 44.5717 -122.7108 North 363 673 19.800 -2.044 Descending Seattle Center
Tue 23:54:01 44.6317 -122.7025 North 347 642 18.600 -1.869 Descending Seattle Center
Tue 23:54:32 44.6667 -122.7022 360° North 351 650 17.900 -1.648 Descending Seattle Center
Tue 23:55:32 44.7578 -122.6919 North 339 628 16.100 -2.000 Descending Seattle Center
Tue 23:55:50 44.7950 -122.6856 North 329 610 15.300 -1.869 Descending Seattle Center
Tue 23:56:33 44.8486 -122.6833 North 332 615 14.200 -1.869 Descending Seattle Center
Tue 23:56:51 44.8908 -122.6775 North 323 599 13.400 -1.672 Descending Seattle Center
Tue 23:57:34 44.9353 -122.6731 North 325 602 12.500 -1.672 Descending Seattle Center
Tue 23:57:52 44.9761 -122.6494 22° Northeast 311 576 11.700 -1.967 Descending Seattle Center
Tue 23:58:35 45.0306 -122.6231 19° North 309 573 10.500 -1.500 Descending Seattle Center
Tue 23:58:52 45.0544 -122.6086 23° Northeast 302 560 10.200 -900 Descending Seattle Center
Tue 23:59:35 45.1072 -122.5853 17° North 298 552 9.600 -984 Descending Seattle Center
Tue 23:59:53 45.1294 -122.5719 23° Northeast 272 504 9.200 -1.377 Descending Seattle Center
Wed 00:00:36 45.1750 -122.5503 19° North 270 501 8.200 -1.327 Descending Seattle Center
Wed 00:01:37 45.2450 -122.5164 19° North 267 494 6.900 -1.289 Descending Seattle Center
Wed 00:02:37 45.3108 -122.4822 20° North 258 478 5.600 -1.388 Descending Seattle Center
Wed 00:03:38 45.3769 -122.4522 18° North 252 467 4.100 -1.426 Descending Seattle Center
Wed 00:04:39 45.4442 -122.4158 21° North 256 475 2.700 -843 Descending Seattle Center
Wed 00:05:39 45.5058 -122.4061 North 242 447 2.400 -496 Descending Seattle Center
Wed 00:06:40 45.5425 -122.4575 316° Northwest 196 364 1.700 -689 Descending Seattle Center
Wed 00:07:41 45.5608 -122.5078 298° West 172 319 1.000 -645 Descending Seattle Center
Wed 00:08:41 45.5794 -122.5567 299° West 153 283 400 -600 Descending Seattle Center
Wed 00:10:00 45.5833 -122.5833 337° Northwest  Level FlightAware Approximate

Login

Don't have an account? Register now (free) for customized features, flight alerts, and more!